sensor_id;sensor_type;location;lat;lon;timestamp;pressure;altitude;pressure_sealevel;temperature;humidity
54920;BME280;63804;53.120;8.764;2023-04-10T00:02:25;102471.44;;;7.40;61.94
54920;BME280;63804;53.120;8.764;2023-04-10T00:04:51;102462.22;;;7.28;62.30
54920;BME280;63804;53.120;8.764;2023-04-10T00:07:16;102467.31;;;7.33;62.35
54920;BME280;63804;53.120;8.764;2023-04-10T00:09:42;102467.75;;;7.22;62.78
54920;BME280;63804;53.120;8.764;2023-04-10T00:12:07;102462.84;;;7.13;63.17
54920;BME280;63804;53.120;8.764;2023-04-10T00:14:36;102461.50;;;7.02;63.70
54920;BME280;63804;53.120;8.764;2023-04-10T00:17:01;102460.19;;;6.91;64.36
54920;BME280;63804;53.120;8.764;2023-04-10T00:19:27;102457.25;;;6.98;64.33
54920;BME280;63804;53.120;8.764;2023-04-10T00:21:52;102457.44;;;7.16;63.75
54920;BME280;63804;53.120;8.764;2023-04-10T00:24:18;102457.03;;;7.05;64.20
54920;BME280;63804;53.120;8.764;2023-04-10T00:26:43;102453.56;;;7.02;64.55
54920;BME280;63804;53.120;8.764;2023-04-10T00:29:09;102446.69;;;6.98;64.76
54920;BME280;63804;53.120;8.764;2023-04-10T00:31:34;102439.19;;;6.88;65.11
54920;BME280;63804;53.120;8.764;2023-04-10T00:34:00;102441.16;;;6.83;65.43
54920;BME280;63804;53.120;8.764;2023-04-10T00:36:25;102442.84;;;6.84;65.59
54920;BME280;63804;53.120;8.764;2023-04-10T00:38:52;102436.19;;;6.73;66.21
54920;BME280;63804;53.120;8.764;2023-04-10T00:41:17;102435.59;;;6.67;66.55
54920;BME280;63804;53.120;8.764;2023-04-10T00:43:43;102436.50;;;6.66;66.96
54920;BME280;63804;53.120;8.764;2023-04-10T00:46:09;102427.31;;;6.76;66.55
54920;BME280;63804;53.120;8.764;2023-04-10T00:48:35;102428.56;;;6.89;66.13
54920;BME280;63804;53.120;8.764;2023-04-10T00:51:03;102423.00;;;6.95;65.97
54920;BME280;63804;53.120;8.764;2023-04-10T00:53:28;102412.09;;;7.05;65.69
54920;BME280;63804;53.120;8.764;2023-04-10T00:55:55;102414.75;;;7.05;66.06
54920;BME280;63804;53.120;8.764;2023-04-10T00:58:21;102415.63;;;7.03;66.17
54920;BME280;63804;53.120;8.764;2023-04-10T01:00:47;102410.53;;;6.99;66.68
54920;BME280;63804;53.120;8.764;2023-04-10T01:03:14;102405.81;;;7.07;66.19
54920;BME280;63804;53.120;8.764;2023-04-10T01:05:46;102417.97;;;7.11;66.37
54920;BME280;63804;53.120;8.764;2023-04-10T01:08:37;102397.84;;;7.09;66.60
54920;BME280;63804;53.120;8.764;2023-04-10T01:11:12;102406.66;;;7.08;66.73
54920;BME280;63804;53.120;8.764;2023-04-10T01:14:11;102399.44;;;7.13;66.86
54920;BME280;63804;53.120;8.764;2023-04-10T01:17:06;102403.78;;;7.14;66.90
54920;BME280;63804;53.120;8.764;2023-04-10T01:22:16;102397.44;;;7.18;66.52
54920;BME280;63804;53.120;8.764;2023-04-10T01:25:01;102389.63;;;7.15;66.94
54920;BME280;63804;53.120;8.764;2023-04-10T01:30:17;102388.47;;;7.22;66.81
54920;BME280;63804;53.120;8.764;2023-04-10T01:32:47;102388.34;;;7.25;66.49
54920;BME280;63804;53.120;8.764;2023-04-10T01:35:14;102385.09;;;7.18;66.99
54920;BME280;63804;53.120;8.764;2023-04-10T01:37:41;102388.47;;;7.22;67.09
54920;BME280;63804;53.120;8.764;2023-04-10T01:40:10;102383.16;;;7.22;66.89
54920;BME280;63804;53.120;8.764;2023-04-10T01:42:50;102377.88;;;7.01;68.10
54920;BME280;63804;53.120;8.764;2023-04-10T01:45:19;102382.88;;;7.08;67.54
54920;BME280;63804;53.120;8.764;2023-04-10T01:47:46;102380.97;;;7.11;67.63
54920;BME280;63804;53.120;8.764;2023-04-10T01:50:13;102380.66;;;7.19;67.28
54920;BME280;63804;53.120;8.764;2023-04-10T01:52:40;102383.50;;;7.14;67.26
54920;BME280;63804;53.120;8.764;2023-04-10T01:55:07;102379.13;;;7.13;67.33
54920;BME280;63804;53.120;8.764;2023-04-10T01:57:33;102377.28;;;7.15;67.38
54920;BME280;63804;53.120;8.764;2023-04-10T02:00:00;102377.09;;;7.20;67.25
54920;BME280;63804;53.120;8.764;2023-04-10T02:02:32;102371.00;;;7.18;67.23
54920;BME280;63804;53.120;8.764;2023-04-10T02:04:58;102359.78;;;7.13;67.31
54920;BME280;63804;53.120;8.764;2023-04-10T02:07:49;102359.97;;;7.08;67.51
54920;BME280;63804;53.120;8.764;2023-04-10T02:10:23;102356.44;;;7.08;67.38
54920;BME280;63804;53.120;8.764;2023-04-10T02:13:03;102364.78;;;6.98;67.59
54920;BME280;63804;53.120;8.764;2023-04-10T02:15:30;102366.38;;;7.02;67.49
54920;BME280;63804;53.120;8.764;2023-04-10T02:17:58;102361.63;;;7.11;67.09
54920;BME280;63804;53.120;8.764;2023-04-10T02:20:25;102349.03;;;6.95;67.80
54920;BME280;63804;53.120;8.764;2023-04-10T02:22:52;102360.41;;;6.97;67.74
54920;BME280;63804;53.120;8.764;2023-04-10T02:25:18;102358.81;;;6.93;67.86
54920;BME280;63804;53.120;8.764;2023-04-10T02:27:43;102343.03;;;6.92;67.67
54920;BME280;63804;53.120;8.764;2023-04-10T02:30:09;102351.81;;;6.92;67.94
54920;BME280;63804;53.120;8.764;2023-04-10T02:32:35;102344.91;;;6.88;67.75
54920;BME280;63804;53.120;8.764;2023-04-10T02:35:01;102335.16;;;6.90;67.64
54920;BME280;63804;53.120;8.764;2023-04-10T02:37:28;102333.19;;;6.95;67.35
54920;BME280;63804;53.120;8.764;2023-04-10T02:39:53;102337.00;;;6.88;67.68
54920;BME280;63804;53.120;8.764;2023-04-10T02:42:19;102338.94;;;6.63;68.54
54920;BME280;63804;53.120;8.764;2023-04-10T02:44:46;102339.38;;;6.74;68.41
54920;BME280;63804;53.120;8.764;2023-04-10T02:47:11;102335.69;;;6.78;68.10
54920;BME280;63804;53.120;8.764;2023-04-10T02:49:37;102329.91;;;6.68;68.25
54920;BME280;63804;53.120;8.764;2023-04-10T02:52:03;102330.63;;;6.72;68.22
54920;BME280;63804;53.120;8.764;2023-04-10T02:54:28;102328.97;;;6.69;68.36
54920;BME280;63804;53.120;8.764;2023-04-10T02:56:55;102328.81;;;6.74;67.96
54920;BME280;63804;53.120;8.764;2023-04-10T02:59:21;102327.88;;;6.75;68.00
54920;BME280;63804;53.120;8.764;2023-04-10T03:01:47;102325.03;;;6.58;68.77
54920;BME280;63804;53.120;8.764;2023-04-10T03:04:13;102327.75;;;6.56;68.88
54920;BME280;63804;53.120;8.764;2023-04-10T03:06:39;102327.88;;;6.53;68.74
54920;BME280;63804;53.120;8.764;2023-04-10T03:09:04;102324.50;;;6.49;69.05
54920;BME280;63804;53.120;8.764;2023-04-10T03:11:30;102321.91;;;6.48;69.09
54920;BME280;63804;53.120;8.764;2023-04-10T03:13:56;102316.38;;;6.54;68.66
54920;BME280;63804;53.120;8.764;2023-04-10T03:16:25;102319.00;;;6.54;68.59
54920;BME280;63804;53.120;8.764;2023-04-10T03:18:51;102315.47;;;6.55;68.64
54920;BME280;63804;53.120;8.764;2023-04-10T03:21:17;102319.16;;;6.51;68.72
54920;BME280;63804;53.120;8.764;2023-04-10T03:23:43;102306.00;;;6.49;68.87
54920;BME280;63804;53.120;8.764;2023-04-10T03:26:08;102306.97;;;6.47;68.85
54920;BME280;63804;53.120;8.764;2023-04-10T03:28:34;102300.72;;;6.49;68.57
54920;BME280;63804;53.120;8.764;2023-04-10T03:31:04;102303.94;;;6.34;69.21
54920;BME280;63804;53.120;8.764;2023-04-10T03:33:30;102297.81;;;6.34;69.46
54920;BME280;63804;53.120;8.764;2023-04-10T03:35:55;102301.38;;;6.33;69.22
54920;BME280;63804;53.120;8.764;2023-04-10T03:38:22;102298.03;;;6.27;69.18
54920;BME280;63804;53.120;8.764;2023-04-10T03:40:47;102293.66;;;6.28;69.30
54920;BME280;63804;53.120;8.764;2023-04-10T03:43:13;102290.75;;;6.34;69.14
54920;BME280;63804;53.120;8.764;2023-04-10T03:45:38;102293.66;;;6.28;69.13
54920;BME280;63804;53.120;8.764;2023-04-10T03:48:04;102290.69;;;6.36;68.63
54920;BME280;63804;53.120;8.764;2023-04-10T03:50:29;102287.94;;;6.39;68.57
54920;BME280;63804;53.120;8.764;2023-04-10T03:52:55;102292.06;;;6.46;68.37
54920;BME280;63804;53.120;8.764;2023-04-10T03:55:20;102288.88;;;6.38;68.48
54920;BME280;63804;53.120;8.764;2023-04-10T03:57:47;102289.72;;;6.38;68.57
54920;BME280;63804;53.120;8.764;2023-04-10T04:00:13;102291.41;;;6.41;68.13
54920;BME280;63804;53.120;8.764;2023-04-10T04:02:40;102295.03;;;6.15;69.07
54920;BME280;63804;53.120;8.764;2023-04-10T04:05:06;102284.91;;;6.26;68.41
54920;BME280;63804;53.120;8.764;2023-04-10T04:07:31;102284.81;;;6.29;68.56
54920;BME280;63804;53.120;8.764;2023-04-10T04:09:57;102292.94;;;6.23;68.35
54920;BME280;63804;53.120;8.764;2023-04-10T04:12:23;102290.84;;;6.31;68.15
54920;BME280;63804;53.120;8.764;2023-04-10T04:14:49;102283.88;;;6.30;67.86
54920;BME280;63804;53.120;8.764;2023-04-10T04:17:14;102289.22;;;6.28;67.95
54920;BME280;63804;53.120;8.764;2023-04-10T04:19:40;102288.09;;;6.34;68.02
54920;BME280;63804;53.120;8.764;2023-04-10T04:22:05;102282.81;;;6.34;67.62
54920;BME280;63804;53.120;8.764;2023-04-10T04:24:31;102284.91;;;6.26;68.01
54920;BME280;63804;53.120;8.764;2023-04-10T04:26:56;102281.34;;;6.27;68.03
54920;BME280;63804;53.120;8.764;2023-04-10T04:29:22;102291.78;;;6.30;67.48
54920;BME280;63804;53.120;8.764;2023-04-10T04:31:47;102289.06;;;6.31;67.39
54920;BME280;63804;53.120;8.764;2023-04-10T04:34:13;102291.13;;;6.25;67.90
54920;BME280;63804;53.120;8.764;2023-04-10T04:36:39;102284.81;;;6.29;67.59
54920;BME280;63804;53.120;8.764;2023-04-10T04:39:04;102283.69;;;6.35;67.28
54920;BME280;63804;53.120;8.764;2023-04-10T04:41:30;102286.69;;;6.25;67.34
54920;BME280;63804;53.120;8.764;2023-04-10T04:43:57;102279.13;;;6.16;67.89
54920;BME280;63804;53.120;8.764;2023-04-10T04:46:23;102291.41;;;6.17;67.94
54920;BME280;63804;53.120;8.764;2023-04-10T04:48:48;102290.72;;;6.12;67.78
54920;BME280;63804;53.120;8.764;2023-04-10T04:51:14;102285.97;;;6.22;67.96
54920;BME280;63804;53.120;8.764;2023-04-10T04:53:39;102288.78;;;6.17;67.63
54920;BME280;63804;53.120;8.764;2023-04-10T04:56:05;102283.53;;;6.16;67.69
54920;BME280;63804;53.120;8.764;2023-04-10T04:58:31;102287.78;;;6.20;67.51
54920;BME280;63804;53.120;8.764;2023-04-10T05:00:57;102288.53;;;6.23;67.50
54920;BME280;63804;53.120;8.764;2023-04-10T05:03:23;102299.47;;;6.36;67.20
54920;BME280;63804;53.120;8.764;2023-04-10T05:05:49;102294.25;;;6.35;66.83
54920;BME280;63804;53.120;8.764;2023-04-10T05:08:15;102298.59;;;6.37;66.93
54920;BME280;63804;53.120;8.764;2023-04-10T05:10:40;102297.53;;;6.41;66.98
54920;BME280;63804;53.120;8.764;2023-04-10T05:13:06;102290.44;;;6.43;66.51
54920;BME280;63804;53.120;8.764;2023-04-10T05:15:31;102295.72;;;6.43;66.72
54920;BME280;63804;53.120;8.764;2023-04-10T05:17:57;102297.13;;;6.52;66.44
54920;BME280;63804;53.120;8.764;2023-04-10T05:20:22;102294.03;;;6.63;66.05
54920;BME280;63804;53.120;8.764;2023-04-10T05:22:49;102287.75;;;6.65;65.88
54920;BME280;63804;53.120;8.764;2023-04-10T05:25:14;102296.81;;;6.60;66.12
54920;BME280;63804;53.120;8.764;2023-04-10T05:27:40;102299.63;;;6.55;66.18
54920;BME280;63804;53.120;8.764;2023-04-10T05:30:06;102274.13;;;6.54;66.17
54920;BME280;63804;53.120;8.764;2023-04-10T05:32:32;102274.22;;;6.52;66.32
54920;BME280;63804;53.120;8.764;2023-04-10T05:34:57;102270.44;;;6.58;66.34
54920;BME280;63804;53.120;8.764;2023-04-10T05:37:23;102268.69;;;6.59;66.18
54920;BME280;63804;53.120;8.764;2023-04-10T05:39:48;102262.78;;;6.74;65.78
54920;BME280;63804;53.120;8.764;2023-04-10T05:42:14;102265.41;;;6.74;65.48
54920;BME280;63804;53.120;8.764;2023-04-10T05:44:40;102266.19;;;6.76;65.62
54920;BME280;63804;53.120;8.764;2023-04-10T05:47:05;102262.47;;;6.60;65.64
54920;BME280;63804;53.120;8.764;2023-04-10T05:49:32;102261.63;;;6.59;66.03
54920;BME280;63804;53.120;8.764;2023-04-10T05:51:57;102264.84;;;6.66;65.59
54920;BME280;63804;53.120;8.764;2023-04-10T05:54:23;102260.13;;;6.74;65.71
54920;BME280;63804;53.120;8.764;2023-04-10T05:56:49;102258.06;;;6.81;65.33
54920;BME280;63804;53.120;8.764;2023-04-10T05:59:14;102257.00;;;6.85;65.16
54920;BME280;63804;53.120;8.764;2023-04-10T06:01:40;102254.91;;;6.93;65.02
54920;BME280;63804;53.120;8.764;2023-04-10T06:04:06;102255.31;;;7.04;64.31
54920;BME280;63804;53.120;8.764;2023-04-10T06:06:32;102256.13;;;7.06;64.35
54920;BME280;63804;53.120;8.764;2023-04-10T06:08:58;102247.00;;;7.13;64.04
54920;BME280;63804;53.120;8.764;2023-04-10T06:11:23;102246.78;;;7.18;64.14
54920;BME280;63804;53.120;8.764;2023-04-10T06:13:49;102243.50;;;7.13;64.32
54920;BME280;63804;53.120;8.764;2023-04-10T06:16:21;102246.88;;;7.16;63.97
54920;BME280;63804;53.120;8.764;2023-04-10T06:18:47;102242.94;;;7.25;63.66
54920;BME280;63804;53.120;8.764;2023-04-10T06:21:12;102244.09;;;7.38;63.09
54920;BME280;63804;53.120;8.764;2023-04-10T06:23:38;102240.13;;;7.48;63.16
54920;BME280;63804;53.120;8.764;2023-04-10T06:26:05;102230.19;;;7.53;62.80
54920;BME280;63804;53.120;8.764;2023-04-10T06:28:30;102228.28;;;7.57;62.95
54920;BME280;63804;53.120;8.764;2023-04-10T06:30:56;102227.50;;;7.55;62.96
54920;BME280;63804;53.120;8.764;2023-04-10T06:33:22;102227.16;;;7.63;62.23
54920;BME280;63804;53.120;8.764;2023-04-10T06:35:47;102230.44;;;7.68;62.50
54920;BME280;63804;53.120;8.764;2023-04-10T06:38:15;102223.78;;;7.78;61.85
54920;BME280;63804;53.120;8.764;2023-04-10T06:40:40;102224.66;;;7.79;62.19
54920;BME280;63804;53.120;8.764;2023-04-10T06:43:06;102223.34;;;7.87;61.47
54920;BME280;63804;53.120;8.764;2023-04-10T06:45:31;102221.72;;;7.85;61.45
54920;BME280;63804;53.120;8.764;2023-04-10T06:47:57;102226.78;;;7.89;61.39
54920;BME280;63804;53.120;8.764;2023-04-10T06:50:22;102226.44;;;7.97;61.23
54920;BME280;63804;53.120;8.764;2023-04-10T06:52:48;102233.28;;;8.01;61.18
54920;BME280;63804;53.120;8.764;2023-04-10T06:55:13;102228.94;;;8.00;60.92
54920;BME280;63804;53.120;8.764;2023-04-10T06:57:39;102236.00;;;7.99;60.89
54920;BME280;63804;53.120;8.764;2023-04-10T07:00:06;102233.66;;;7.93;61.20
54920;BME280;63804;53.120;8.764;2023-04-10T07:02:31;102223.66;;;8.00;60.68
54920;BME280;63804;53.120;8.764;2023-04-10T07:04:57;102230.13;;;8.12;60.40
54920;BME280;63804;53.120;8.764;2023-04-10T07:07:22;102224.69;;;8.15;60.23
54920;BME280;63804;53.120;8.764;2023-04-10T07:09:48;102221.97;;;8.16;60.33
54920;BME280;63804;53.120;8.764;2023-04-10T07:12:13;102220.88;;;8.20;60.26
54920;BME280;63804;53.120;8.764;2023-04-10T07:14:39;102219.75;;;8.26;60.07
54920;BME280;63804;53.120;8.764;2023-04-10T07:17:05;102212.59;;;8.28;60.14
54920;BME280;63804;53.120;8.764;2023-04-10T07:19:31;102211.38;;;8.35;60.13
54920;BME280;63804;53.120;8.764;2023-04-10T07:21:56;102213.78;;;8.40;60.02
54920;BME280;63804;53.120;8.764;2023-04-10T07:24:22;102208.25;;;8.44;59.68
54920;BME280;63804;53.120;8.764;2023-04-10T07:26:48;102214.97;;;8.52;59.56
54920;BME280;63804;53.120;8.764;2023-04-10T07:29:14;102211.63;;;8.65;59.13
54920;BME280;63804;53.120;8.764;2023-04-10T07:31:40;102206.41;;;8.64;58.73
54920;BME280;63804;53.120;8.764;2023-04-10T07:34:06;102207.44;;;8.61;59.06
54920;BME280;63804;53.120;8.764;2023-04-10T07:36:32;102193.63;;;8.72;58.93
54920;BME280;63804;53.120;8.764;2023-04-10T07:38:58;102193.31;;;8.78;58.76
54920;BME280;63804;53.120;8.764;2023-04-10T07:41:23;102190.28;;;8.86;58.80
54920;BME280;63804;53.120;8.764;2023-04-10T07:43:49;102187.38;;;8.90;58.38
54920;BME280;63804;53.120;8.764;2023-04-10T07:46:15;102184.56;;;8.93;58.76
54920;BME280;63804;53.120;8.764;2023-04-10T07:48:41;102187.75;;;9.00;58.40
54920;BME280;63804;53.120;8.764;2023-04-10T07:51:07;102187.38;;;9.08;58.49
54920;BME280;63804;53.120;8.764;2023-04-10T07:53:37;102177.09;;;9.17;57.98
54920;BME280;63804;53.120;8.764;2023-04-10T07:56:03;102172.44;;;9.22;57.93
54920;BME280;63804;53.120;8.764;2023-04-10T07:58:29;102168.44;;;9.31;57.93
54920;BME280;63804;53.120;8.764;2023-04-10T08:00:56;102171.88;;;9.33;57.33
54920;BME280;63804;53.120;8.764;2023-04-10T08:03:22;102162.81;;;9.37;57.25
54920;BME280;63804;53.120;8.764;2023-04-10T08:05:48;102168.59;;;9.44;57.45
54920;BME280;63804;53.120;8.764;2023-04-10T08:08:14;102160.47;;;9.47;57.10
54920;BME280;63804;53.120;8.764;2023-04-10T08:10:40;102150.31;;;9.55;56.95
54920;BME280;63804;53.120;8.764;2023-04-10T08:13:05;102154.25;;;9.64;56.93
54920;BME280;63804;53.120;8.764;2023-04-10T08:15:31;102134.22;;;9.74;56.73
54920;BME280;63804;53.120;8.764;2023-04-10T08:17:56;102139.06;;;9.83;56.57
54920;BME280;63804;53.120;8.764;2023-04-10T08:20:22;102133.31;;;9.91;56.26
54920;BME280;63804;53.120;8.764;2023-04-10T08:22:48;102131.06;;;9.99;55.86
54920;BME280;63804;53.120;8.764;2023-04-10T08:25:19;102120.84;;;10.07;55.67
54920;BME280;63804;53.120;8.764;2023-04-10T08:27:45;102116.03;;;10.14;55.77
54920;BME280;63804;53.120;8.764;2023-04-10T08:30:11;102103.34;;;10.19;55.59
54920;BME280;63804;53.120;8.764;2023-04-10T08:32:37;102103.91;;;10.24;55.02
54920;BME280;63804;53.120;8.764;2023-04-10T08:35:03;102105.53;;;10.27;55.12
54920;BME280;63804;53.120;8.764;2023-04-10T08:37:28;102103.56;;;10.30;54.82
54920;BME280;63804;53.120;8.764;2023-04-10T08:39:54;102107.28;;;10.42;55.21
54920;BME280;63804;53.120;8.764;2023-04-10T08:42:20;102097.72;;;10.54;54.97
54920;BME280;63804;53.120;8.764;2023-04-10T08:44:48;102109.69;;;10.61;54.72
54920;BME280;63804;53.120;8.764;2023-04-10T08:47:14;102099.28;;;10.72;54.64
54920;BME280;63804;53.120;8.764;2023-04-10T08:49:55;102103.09;;;10.82;54.43
54920;BME280;63804;53.120;8.764;2023-04-10T08:52:24;102097.00;;;10.95;54.37
54920;BME280;63804;53.120;8.764;2023-04-10T08:54:55;102085.22;;;10.99;53.28
54920;BME280;63804;53.120;8.764;2023-04-10T08:57:22;102084.81;;;11.05;52.72
54920;BME280;63804;53.120;8.764;2023-04-10T08:59:49;102086.16;;;11.12;52.63
54920;BME280;63804;53.120;8.764;2023-04-10T09:02:16;102079.69;;;11.16;52.78
54920;BME280;63804;53.120;8.764;2023-04-10T09:04:46;102079.50;;;11.19;52.70
54920;BME280;63804;53.120;8.764;2023-04-10T09:07:12;102070.22;;;11.26;51.80
54920;BME280;63804;53.120;8.764;2023-04-10T09:09:38;102070.09;;;11.28;51.31
54920;BME280;63804;53.120;8.764;2023-04-10T09:12:05;102059.19;;;11.32;51.61
54920;BME280;63804;53.120;8.764;2023-04-10T09:14:33;102052.53;;;11.39;51.24
54920;BME280;63804;53.120;8.764;2023-04-10T09:17:19;102046.28;;;11.53;48.66
54920;BME280;63804;53.120;8.764;2023-04-10T09:19:48;102051.41;;;11.56;48.98
54920;BME280;63804;53.120;8.764;2023-04-10T09:22:15;102046.44;;;11.64;49.01
54920;BME280;63804;53.120;8.764;2023-04-10T09:24:42;102034.69;;;11.81;48.93
54920;BME280;63804;53.120;8.764;2023-04-10T09:27:09;102027.75;;;11.92;47.57
54920;BME280;63804;53.120;8.764;2023-04-10T09:29:41;102025.03;;;12.06;48.03
54920;BME280;63804;53.120;8.764;2023-04-10T09:32:07;102015.13;;;12.21;47.42
54920;BME280;63804;53.120;8.764;2023-04-10T09:34:32;102008.09;;;12.32;45.37
54920;BME280;63804;53.120;8.764;2023-04-10T09:36:59;102001.59;;;12.36;46.23
54920;BME280;63804;53.120;8.764;2023-04-10T09:39:35;101992.63;;;12.37;46.37
54920;BME280;63804;53.120;8.764;2023-04-10T09:42:03;101988.78;;;12.42;45.49
54920;BME280;63804;53.120;8.764;2023-04-10T09:44:33;101989.56;;;12.44;45.73
54920;BME280;63804;53.120;8.764;2023-04-10T09:47:19;101982.66;;;12.54;45.17
54920;BME280;63804;53.120;8.764;2023-04-10T09:49:55;101969.41;;;12.52;45.19
54920;BME280;63804;53.120;8.764;2023-04-10T09:52:29;101972.38;;;12.48;44.21
54920;BME280;63804;53.120;8.764;2023-04-10T09:55:02;101971.88;;;12.43;43.53
54920;BME280;63804;53.120;8.764;2023-04-10T09:57:29;101962.13;;;12.42;44.88
54920;BME280;63804;53.120;8.764;2023-04-10T09:59:58;101956.59;;;12.45;43.97
54920;BME280;63804;53.120;8.764;2023-04-10T10:02:25;101952.31;;;12.42;44.16
54920;BME280;63804;53.120;8.764;2023-04-10T10:04:53;101942.31;;;12.46;43.33
54920;BME280;63804;53.120;8.764;2023-04-10T10:07:21;101933.16;;;12.50;43.85
54920;BME280;63804;53.120;8.764;2023-04-10T10:09:50;101932.41;;;12.60;44.55
54920;BME280;63804;53.120;8.764;2023-04-10T10:12:25;101932.38;;;12.73;41.95
54920;BME280;63804;53.120;8.764;2023-04-10T10:15:02;101921.66;;;12.86;41.66
54920;BME280;63804;53.120;8.764;2023-04-10T10:17:40;101915.91;;;12.79;42.05
54920;BME280;63804;53.120;8.764;2023-04-10T10:20:09;101904.41;;;12.79;41.77
54920;BME280;63804;53.120;8.764;2023-04-10T10:22:36;101910.16;;;12.85;40.09
54920;BME280;63804;53.120;8.764;2023-04-10T10:25:03;101902.25;;;12.84;40.85
54920;BME280;63804;53.120;8.764;2023-04-10T10:27:30;101908.97;;;12.90;40.62
54920;BME280;63804;53.120;8.764;2023-04-10T10:29:59;101904.25;;;12.93;41.32
54920;BME280;63804;53.120;8.764;2023-04-10T10:32:26;101896.03;;;12.96;42.13
54920;BME280;63804;53.120;8.764;2023-04-10T10:34:52;101887.22;;;13.07;41.10
54920;BME280;63804;53.120;8.764;2023-04-10T10:37:19;101891.59;;;13.08;40.20
54920;BME280;63804;53.120;8.764;2023-04-10T10:39:56;101884.94;;;13.14;40.02
54920;BME280;63804;53.120;8.764;2023-04-10T10:43:16;101882.03;;;13.17;39.06
54920;BME280;63804;53.120;8.764;2023-04-10T10:45:51;101872.00;;;13.20;40.66
54920;BME280;63804;53.120;8.764;2023-04-10T10:48:18;101867.19;;;13.36;39.01
54920;BME280;63804;53.120;8.764;2023-04-10T10:50:54;101868.31;;;13.45;38.86
54920;BME280;63804;53.120;8.764;2023-04-10T10:53:33;101846.88;;;13.58;39.76
54920;BME280;63804;53.120;8.764;2023-04-10T10:58:46;101841.84;;;13.89;39.23
54920;BME280;63804;53.120;8.764;2023-04-10T11:01:12;101839.41;;;14.08;38.54
54920;BME280;63804;53.120;8.764;2023-04-10T11:03:38;101832.09;;;14.21;38.86
54920;BME280;63804;53.120;8.764;2023-04-10T11:06:08;101820.19;;;14.25;38.65
54920;BME280;63804;53.120;8.764;2023-04-10T11:11:24;101827.09;;;14.28;37.57
54920;BME280;63804;53.120;8.764;2023-04-10T11:16:42;101796.38;;;14.33;36.23
54920;BME280;63804;53.120;8.764;2023-04-10T11:19:10;101803.41;;;14.35;37.33
54920;BME280;63804;53.120;8.764;2023-04-10T11:22:05;101802.56;;;14.34;37.02
54920;BME280;63804;53.120;8.764;2023-04-10T11:24:55;101801.44;;;14.37;35.54
54920;BME280;63804;53.120;8.764;2023-04-10T11:27:37;101782.97;;;14.45;36.34
54920;BME280;63804;53.120;8.764;2023-04-10T11:30:25;101775.81;;;14.45;35.81
54920;BME280;63804;53.120;8.764;2023-04-10T11:32:53;101776.25;;;14.50;36.80
54920;BME280;63804;53.120;8.764;2023-04-10T11:35:19;101767.59;;;14.58;36.72
54920;BME280;63804;53.120;8.764;2023-04-10T11:37:44;101769.03;;;14.62;37.19
54920;BME280;63804;53.120;8.764;2023-04-10T11:40:10;101763.31;;;14.67;37.41
54920;BME280;63804;53.120;8.764;2023-04-10T11:42:36;101746.16;;;14.69;37.37
54920;BME280;63804;53.120;8.764;2023-04-10T11:45:21;101743.34;;;14.71;36.58
54920;BME280;63804;53.120;8.764;2023-04-10T11:47:53;101736.44;;;14.68;37.00
54920;BME280;63804;53.120;8.764;2023-04-10T11:50:19;101735.72;;;14.66;36.72
54920;BME280;63804;53.120;8.764;2023-04-10T11:52:54;101737.41;;;14.67;36.78
54920;BME280;63804;53.120;8.764;2023-04-10T11:55:35;101726.84;;;14.77;36.88
54920;BME280;63804;53.120;8.764;2023-04-10T11:58:02;101723.66;;;14.83;36.45
54920;BME280;63804;53.120;8.764;2023-04-10T12:00:27;101732.03;;;14.78;36.30
54920;BME280;63804;53.120;8.764;2023-04-10T12:02:53;101733.16;;;14.76;36.03
54920;BME280;63804;53.120;8.764;2023-04-10T12:05:18;101729.66;;;14.75;36.40
54920;BME280;63804;53.120;8.764;2023-04-10T12:07:44;101727.31;;;14.71;35.91
54920;BME280;63804;53.120;8.764;2023-04-10T12:10:09;101715.53;;;14.73;36.14
54920;BME280;63804;53.120;8.764;2023-04-10T12:12:36;101720.63;;;14.76;35.98
54920;BME280;63804;53.120;8.764;2023-04-10T12:15:02;101716.47;;;14.84;35.07
54920;BME280;63804;53.120;8.764;2023-04-10T12:17:28;101703.69;;;14.87;34.62
54920;BME280;63804;53.120;8.764;2023-04-10T12:19:54;101703.78;;;14.86;34.47
54920;BME280;63804;53.120;8.764;2023-04-10T12:22:20;101705.75;;;14.84;34.59
54920;BME280;63804;53.120;8.764;2023-04-10T12:24:47;101682.94;;;14.79;34.85
54920;BME280;63804;53.120;8.764;2023-04-10T12:27:21;101679.97;;;14.83;33.82
54920;BME280;63804;53.120;8.764;2023-04-10T12:29:49;101673.31;;;14.77;34.40
54920;BME280;63804;53.120;8.764;2023-04-10T12:32:16;101674.44;;;14.74;33.88
54920;BME280;63804;53.120;8.764;2023-04-10T12:34:48;101666.78;;;14.70;33.48
54920;BME280;63804;53.120;8.764;2023-04-10T12:37:14;101657.66;;;14.72;33.21
54920;BME280;63804;53.120;8.764;2023-04-10T12:39:40;101654.09;;;14.83;33.04
54920;BME280;63804;53.120;8.764;2023-04-10T12:42:18;101651.44;;;14.93;32.80
54920;BME280;63804;53.120;8.764;2023-04-10T12:44:55;101637.41;;;15.00;32.73
54920;BME280;63804;53.120;8.764;2023-04-10T12:47:22;101629.28;;;15.02;32.34
54920;BME280;63804;53.120;8.764;2023-04-10T12:50:07;101630.22;;;15.01;32.78
54920;BME280;63804;53.120;8.764;2023-04-10T12:52:35;101619.66;;;14.99;32.68
54920;BME280;63804;53.120;8.764;2023-04-10T12:55:15;101621.69;;;15.07;32.86
54920;BME280;63804;53.120;8.764;2023-04-10T12:57:43;101607.88;;;15.12;32.55
54920;BME280;63804;53.120;8.764;2023-04-10T13:00:10;101596.47;;;15.10;32.56
54920;BME280;63804;53.120;8.764;2023-04-10T13:02:37;101586.78;;;15.18;33.09
54920;BME280;63804;53.120;8.764;2023-04-10T13:05:04;101611.19;;;15.25;32.93
54920;BME280;63804;53.120;8.764;2023-04-10T13:07:31;101605.84;;;15.25;31.99
54920;BME280;63804;53.120;8.764;2023-04-10T13:09:57;101601.44;;;15.24;31.73
54920;BME280;63804;53.120;8.764;2023-04-10T13:12:22;101580.75;;;15.36;32.03
54920;BME280;63804;53.120;8.764;2023-04-10T13:14:49;101585.16;;;15.37;31.80
54920;BME280;63804;53.120;8.764;2023-04-10T13:17:15;101571.31;;;15.32;31.48